createdAt,value
2022-09-16T00:00:59.381Z,22.7
2022-09-16T00:03:31.475Z,22.7
2022-09-16T00:06:06.825Z,22.7
2022-09-16T00:08:39.719Z,22.7
2022-09-16T00:11:14.745Z,22.6
2022-09-16T00:13:59.264Z,22.6
2022-09-16T00:16:31.967Z,22.7
2022-09-16T00:19:04.523Z,22.6
2022-09-16T00:21:38.386Z,22.6
2022-09-16T00:24:10.779Z,22.5
2022-09-16T00:26:43.285Z,22.6
2022-09-16T00:29:15.281Z,22.5
2022-09-16T00:31:48.037Z,22.5
2022-09-16T00:34:20.280Z,22.6
2022-09-16T00:36:56.553Z,22.5
2022-09-16T00:39:29.679Z,22.5
2022-09-16T00:42:02.029Z,22.4
2022-09-16T00:44:34.930Z,22.4
2022-09-16T00:47:09.468Z,22.4
2022-09-16T00:49:41.521Z,22.4
2022-09-16T00:52:13.793Z,22.4
2022-09-16T00:54:45.747Z,22.4
2022-09-16T00:57:20.684Z,22.2
2022-09-16T00:59:53.263Z,22.1
2022-09-16T01:02:25.743Z,22.1
2022-09-16T01:04:57.803Z,22.1
2022-09-16T01:07:33.874Z,22.1
2022-09-16T01:10:05.410Z,22
2022-09-16T01:12:37.247Z,22.1
2022-09-16T01:15:11.781Z,22.2
2022-09-16T01:17:45.428Z,22.2
2022-09-16T01:20:17.821Z,22.2
2022-09-16T01:22:52.626Z,22.2
2022-09-16T01:25:25.011Z,22.2
2022-09-16T01:27:57.622Z,22.1
2022-09-16T01:30:29.860Z,22.2
2022-09-16T01:33:02.487Z,22.2
2022-09-16T01:35:34.725Z,22.2
2022-09-16T01:38:07.264Z,22.2
2022-09-16T01:40:40.683Z,22.1
2022-09-16T01:43:13.120Z,22.1
2022-09-16T01:45:44.696Z,22.1
2022-09-16T01:48:17.339Z,22.1
2022-09-16T01:50:49.499Z,22.1
2022-09-16T01:53:22.158Z,22
2022-09-16T01:55:54.846Z,21.9
2022-09-16T01:58:27.513Z,21.9
2022-09-16T02:00:59.841Z,21.9
2022-09-16T02:03:32.215Z,21.8
2022-09-16T02:06:05.219Z,21.7
2022-09-16T02:08:37.285Z,21.7
2022-09-16T02:11:13.507Z,21.8
2022-09-16T02:13:47.601Z,21.8
2022-09-16T02:16:21.631Z,21.8
2022-09-16T02:18:53.722Z,21.8
2022-09-16T02:21:25.803Z,21.8
2022-09-16T02:24:03.700Z,21.8
2022-09-16T02:26:35.590Z,21.8
2022-09-16T02:29:07.959Z,21.8
2022-09-16T02:31:43.239Z,21.8
2022-09-16T02:34:14.203Z,21.7
2022-09-16T02:36:49.705Z,21.7
2022-09-16T02:39:21.003Z,21.7
2022-09-16T02:41:53.713Z,21.7
2022-09-16T02:44:29.250Z,21.7
2022-09-16T02:47:04.108Z,21.7
2022-09-16T02:49:36.985Z,21.7
2022-09-16T02:52:12.321Z,21.7
2022-09-16T02:54:43.819Z,21.7
2022-09-16T02:57:17.793Z,21.8
2022-09-16T02:59:53.643Z,21.8
2022-09-16T03:02:28.224Z,21.8
2022-09-16T03:05:01.078Z,21.8
2022-09-16T03:07:35.888Z,21.8
2022-09-16T03:10:08.435Z,21.8
2022-09-16T03:12:40.997Z,21.8
2022-09-16T03:15:13.707Z,21.7
2022-09-16T03:17:49.098Z,21.7
2022-09-16T03:20:20.974Z,21.6
2022-09-16T03:22:51.988Z,21.7
2022-09-16T03:25:24.977Z,21.6
2022-09-16T03:27:57.612Z,21.7
2022-09-16T03:30:33.219Z,21.7
2022-09-16T03:33:04.389Z,21.7
2022-09-16T03:35:39.091Z,21.8
2022-09-16T03:38:11.124Z,21.9
2022-09-16T03:40:43.256Z,21.9
2022-09-16T03:43:17.280Z,21.9
2022-09-16T03:45:49.587Z,21.9
2022-09-16T03:48:25.086Z,21.9
2022-09-16T03:50:56.490Z,21.8
2022-09-16T03:53:29.619Z,21.9
2022-09-16T03:56:01.959Z,21.8
2022-09-16T03:58:34.451Z,21.8
2022-09-16T04:01:07.947Z,21.8
2022-09-16T04:03:40.991Z,21.8
2022-09-16T04:06:17.110Z,21.8
2022-09-16T04:08:49.265Z,21.8
2022-09-16T04:11:21.927Z,21.7
2022-09-16T04:13:58.913Z,21.7
2022-09-16T04:16:30.161Z,21.7
2022-09-16T04:19:03.491Z,21.7
2022-09-16T04:21:36.798Z,21.7
2022-09-16T04:24:14.072Z,21.8
2022-09-16T04:26:47.395Z,21.8
2022-09-16T04:29:19.087Z,21.8
2022-09-16T04:31:51.488Z,21.7
2022-09-16T04:34:24.639Z,21.6
2022-09-16T04:36:58.387Z,21.6
2022-09-16T04:39:31.331Z,21.6
2022-09-16T04:42:03.702Z,21.6
2022-09-16T04:44:36.879Z,21.6
2022-09-16T04:47:09.174Z,21.6
2022-09-16T04:49:41.991Z,21.6
2022-09-16T04:52:14.719Z,21.6
2022-09-16T04:54:47.413Z,21.7
2022-09-16T04:57:19.616Z,21.7
2022-09-16T04:59:52.466Z,21.8
2022-09-16T05:02:25.103Z,21.8
2022-09-16T05:05:01.206Z,21.8
2022-09-16T05:07:33.681Z,21.8
2022-09-16T05:10:06.343Z,21.8
2022-09-16T05:12:40.887Z,21.9
2022-09-16T05:15:14.767Z,21.9
2022-09-16T05:17:52.635Z,22
2022-09-16T05:20:28.973Z,22
2022-09-16T05:23:02.645Z,22.1
2022-09-16T05:25:34.091Z,22.2
2022-09-16T05:28:06.857Z,22.2
2022-09-16T05:30:39.856Z,22.2
2022-09-16T05:33:16.839Z,22.2
2022-09-16T05:35:48.163Z,22.2
2022-09-16T05:38:21.116Z,22.2
2022-09-16T05:40:54.584Z,22.2
2022-09-16T05:43:27.537Z,22.1
2022-09-16T05:46:00.756Z,22.2
2022-09-16T05:48:32.993Z,22.3
2022-09-16T05:51:07.591Z,22.3
2022-09-16T05:53:40.739Z,22.2
2022-09-16T05:56:13.283Z,22.2
2022-09-16T05:58:46.859Z,22.2
2022-09-16T06:01:21.664Z,22.2
2022-09-16T06:03:54.617Z,22.2
2022-09-16T06:06:30.769Z,22.2
2022-09-16T06:09:02.578Z,22.2
2022-09-16T06:11:34.760Z,22.3
2022-09-16T06:14:06.963Z,22.3
2022-09-16T06:16:41.832Z,22.4
2022-09-16T06:19:13.557Z,22.4
2022-09-16T06:21:45.779Z,22.5
2022-09-16T06:24:18.946Z,22.6
2022-09-16T06:26:52.649Z,22.6
2022-09-16T06:29:25.083Z,22.5
2022-09-16T06:31:57.858Z,22.5
2022-09-16T06:34:30.586Z,22.5
2022-09-16T06:37:02.892Z,22.5
2022-09-16T06:39:40.820Z,22.5
2022-09-16T06:42:15.591Z,22.5
2022-09-16T06:44:46.430Z,22.5
2022-09-16T06:47:19.040Z,22.5
2022-09-16T06:49:51.026Z,22.5
2022-09-16T06:52:23.024Z,22.6
2022-09-16T06:54:55.646Z,22.5
2022-09-16T06:57:27.829Z,22.7
2022-09-16T07:00:00.723Z,22.7
2022-09-16T07:02:33.651Z,22.7
2022-09-16T07:05:05.462Z,22.9
2022-09-16T07:07:38.669Z,23
2022-09-16T07:10:11.827Z,22.9
2022-09-16T07:12:44.191Z,23
2022-09-16T07:15:19.700Z,23
2022-09-16T07:17:51.116Z,23.1
2022-09-16T07:20:23.549Z,23.1
2022-09-16T07:22:56.375Z,23.2
2022-09-16T07:25:36.922Z,23.3
2022-09-16T07:28:10.863Z,23.4
2022-09-16T07:30:42.807Z,23.4
2022-09-16T07:33:18.715Z,23.5
2022-09-16T07:35:49.305Z,23.5
2022-09-16T07:38:21.486Z,23.6
2022-09-16T07:40:53.975Z,23.6
2022-09-16T07:43:25.684Z,23.6
2022-09-16T07:45:58.062Z,23.7
2022-09-16T07:48:35.979Z,23.7
2022-09-16T07:51:07.122Z,23.8
2022-09-16T07:53:39.440Z,23.8
2022-09-16T07:56:14.038Z,23.9
2022-09-16T07:58:46.644Z,24
2022-09-16T08:01:22.330Z,23.8
2022-09-16T08:03:53.791Z,23.8
2022-09-16T08:06:27.631Z,23.8
2022-09-16T08:09:47.353Z,23.8
2022-09-16T08:12:24.295Z,23.9
2022-09-16T08:14:56.825Z,23.9
2022-09-16T08:17:34.489Z,24
2022-09-16T08:20:05.252Z,24
2022-09-16T08:22:38.388Z,23.9
2022-09-16T08:25:13.471Z,23.9
2022-09-16T08:27:45.307Z,23.9
2022-09-16T08:30:17.264Z,23.9
2022-09-16T08:32:48.936Z,23.9
2022-09-16T08:35:21.476Z,23.9
2022-09-16T08:37:53.700Z,24
2022-09-16T08:40:27.555Z,24
2022-09-16T08:43:00.310Z,24
2022-09-16T08:45:33.051Z,24.1
2022-09-16T08:48:05.713Z,24.2
2022-09-16T08:50:38.633Z,24.3
2022-09-16T08:53:11.035Z,24.4
2022-09-16T08:55:43.440Z,24.3
2022-09-16T08:58:17.697Z,24.4
2022-09-16T09:00:50.456Z,24.3
2022-09-16T09:03:23.278Z,24.3
2022-09-16T09:05:57.513Z,24.5
2022-09-16T09:08:30.299Z,24.7
2022-09-16T09:11:02.882Z,24.8
2022-09-16T09:13:37.705Z,24.8
2022-09-16T09:16:10.528Z,24.9
2022-09-16T09:18:42.946Z,25
2022-09-16T09:21:15.679Z,25
2022-09-16T09:23:48.792Z,25
2022-09-16T09:26:23.473Z,24.9
2022-09-16T09:28:56.367Z,24.9
2022-09-16T09:31:32.286Z,25
2022-09-16T09:34:05.574Z,24.9
2022-09-16T09:36:38.252Z,24.9
2022-09-16T09:39:10.239Z,24.9
2022-09-16T09:41:45.762Z,24.7
2022-09-16T09:44:17.829Z,24.8
2022-09-16T09:46:50.440Z,24.7
2022-09-16T09:49:22.912Z,24.7
2022-09-16T09:51:57.433Z,24.6
2022-09-16T09:54:30.624Z,24.7
2022-09-16T09:57:06.388Z,24.6
2022-09-16T09:59:41.800Z,24.7
2022-09-16T10:02:16.180Z,24.7
2022-09-16T10:04:48.315Z,24.7
2022-09-16T10:07:20.128Z,24.7
2022-09-16T10:09:52.857Z,24.7
2022-09-16T10:12:25.178Z,24.5
2022-09-16T10:14:58.155Z,24.4
2022-09-16T10:17:32.999Z,24.6
2022-09-16T10:20:04.883Z,24.6
2022-09-16T10:22:40.584Z,24.6
2022-09-16T10:25:13.101Z,24.7
2022-09-16T10:27:44.032Z,24.8
2022-09-16T10:30:18.395Z,25
2022-09-16T10:32:57.192Z,25
2022-09-16T10:35:29.585Z,25
2022-09-16T10:38:02.091Z,24.9
2022-09-16T10:40:35.153Z,24.9
2022-09-16T10:43:07.723Z,24.9
2022-09-16T10:45:43.709Z,24.8
2022-09-16T10:48:15.229Z,24.8
2022-09-16T10:50:47.622Z,24.6
2022-09-16T10:53:20.336Z,24.5
2022-09-16T10:55:52.809Z,24.4
2022-09-16T10:58:27.241Z,24.5
2022-09-16T11:01:00.932Z,24.4
2022-09-16T11:03:34.358Z,24.4
2022-09-16T11:06:07.535Z,24.5
2022-09-16T11:08:39.725Z,24.5
2022-09-16T11:11:14.505Z,24.5
2022-09-16T11:13:50.803Z,24.5
2022-09-16T11:16:25.114Z,24.6
2022-09-16T11:18:57.115Z,24.6
2022-09-16T11:21:29.881Z,24.5
2022-09-16T11:24:02.735Z,24.4
2022-09-16T11:26:35.807Z,24.3
2022-09-16T11:29:07.572Z,24
2022-09-16T11:31:40.532Z,24
2022-09-16T11:34:14.185Z,23.9
2022-09-16T11:36:51.577Z,23.8
2022-09-16T11:39:25.324Z,23.8
2022-09-16T11:41:57.284Z,23.6
2022-09-16T11:44:29.605Z,23.5
2022-09-16T11:47:01.876Z,23.4
2022-09-16T11:49:33.486Z,23.4
2022-09-16T11:52:05.595Z,23.4
2022-09-16T11:54:38.130Z,23.2
2022-09-16T11:57:15.631Z,23.2
2022-09-16T11:59:46.874Z,23.2
2022-09-16T12:02:20.455Z,23.2
2022-09-16T12:04:53.883Z,23.2
2022-09-16T12:07:27.530Z,23.1
2022-09-16T12:10:00.020Z,23
2022-09-16T12:12:33.576Z,23
2022-09-16T12:15:06.575Z,23
2022-09-16T12:17:39.872Z,22.9
2022-09-16T12:20:12.204Z,23
2022-09-16T12:22:46.017Z,23.1
2022-09-16T12:25:18.704Z,23.3
2022-09-16T12:27:51.104Z,23.2
2022-09-16T12:30:24.737Z,23.2
2022-09-16T12:32:57.753Z,23.2
2022-09-16T12:38:04.620Z,23.2
2022-09-16T12:40:38.465Z,23.2
2022-09-16T12:43:10.778Z,23.1
2022-09-16T12:45:43.195Z,23
2022-09-16T12:48:16.193Z,22.9
2022-09-16T12:50:48.568Z,22.8
2022-09-16T12:53:21.042Z,22.8
2022-09-16T12:55:54.310Z,22.8
2022-09-16T12:58:29.026Z,22.8
2022-09-16T13:01:03.039Z,22.8
2022-09-16T13:03:37.052Z,22.8
2022-09-16T13:06:09.544Z,22.7
2022-09-16T13:08:40.408Z,22.8
2022-09-16T13:12:45.049Z,22.8
2022-09-16T13:15:14.909Z,23.1
2022-09-16T13:17:47.804Z,23
2022-09-16T13:20:20.600Z,22.9
2022-09-16T13:22:54.682Z,22.9
2022-09-16T13:25:26.810Z,22.9
2022-09-16T13:28:00.332Z,22.9
2022-09-16T13:30:33.049Z,22.9
2022-09-16T13:33:06.462Z,23
2022-09-16T13:35:39.563Z,23.1
2022-09-16T13:38:13.018Z,23.1
2022-09-16T13:40:47.081Z,23.1
2022-09-16T13:43:20.118Z,23
2022-09-16T13:45:52.654Z,22.9
2022-09-16T13:48:25.189Z,22.8
2022-09-16T13:50:58.212Z,22.8
2022-09-16T13:53:30.757Z,22.8
2022-09-16T13:56:03.321Z,22.7
2022-09-16T13:58:35.960Z,22.8
2022-09-16T14:01:10.935Z,22.8
2022-09-16T14:03:45.287Z,22.8
2022-09-16T14:06:21.329Z,22.8
2022-09-16T14:08:53.052Z,22.8
2022-09-16T14:11:25.600Z,22.9
2022-09-16T14:14:43.475Z,22.9
2022-09-16T14:17:18.176Z,23.1
2022-09-16T14:19:49.494Z,23.1
2022-09-16T14:22:23.147Z,23
2022-09-16T14:25:30.308Z,23.1
2022-09-16T14:28:00.666Z,23.1
2022-09-16T14:30:32.823Z,22.9
2022-09-16T14:33:06.683Z,22.8
2022-09-16T14:35:39.634Z,22.7
2022-09-16T14:39:07.547Z,22.8
2022-09-16T14:41:38.628Z,22.9
2022-09-16T14:44:10.925Z,22.8
2022-09-16T14:46:42.912Z,22.8
2022-09-16T14:49:17.781Z,22.8
2022-09-16T14:51:49.108Z,22.9
2022-09-16T14:54:22.133Z,22.9
2022-09-16T14:56:54.181Z,22.8
2022-09-16T14:59:26.941Z,22.9
2022-09-16T15:01:59.715Z,22.8
2022-09-16T15:04:31.970Z,22.8
2022-09-16T15:07:07.810Z,22.7
2022-09-16T15:09:52.596Z,22.7
2022-09-16T15:12:25.475Z,22.7
2022-09-16T15:14:57.988Z,22.6
2022-09-16T15:17:32.164Z,22.6
2022-09-16T15:20:06.576Z,22.5
2022-09-16T15:22:40.474Z,22.4
2022-09-16T15:25:13.766Z,22.3
2022-09-16T15:27:45.983Z,22.3
2022-09-16T15:30:18.488Z,22.3
2022-09-16T15:32:50.991Z,22.2
2022-09-16T15:35:25.969Z,22.3
2022-09-16T15:37:58.585Z,22.3
2022-09-16T15:40:31.866Z,22.3
2022-09-16T15:43:05.717Z,22.3
2022-09-16T15:45:39.117Z,22.4
2022-09-16T15:48:11.174Z,22.3
2022-09-16T15:50:43.540Z,22.2
2022-09-16T15:53:17.619Z,22.3
2022-09-16T15:55:50.986Z,22.2
2022-09-16T15:58:23.447Z,22.2
2022-09-16T16:00:57.057Z,22.1
2022-09-16T16:03:30.875Z,22.1
2022-09-16T16:06:03.148Z,22.1
2022-09-16T16:08:35.881Z,22.2
2022-09-16T16:11:10.647Z,22.2
2022-09-16T16:13:48.101Z,22.2
2022-09-16T16:16:20.333Z,22.2
2022-09-16T16:18:52.301Z,22.1
2022-09-16T16:21:26.485Z,22.1
2022-09-16T16:23:59.943Z,22
2022-09-16T16:26:32.759Z,21.9
2022-09-16T16:29:05.572Z,21.8
2022-09-16T16:31:38.626Z,21.9
2022-09-16T16:34:11.117Z,22
2022-09-16T16:36:43.681Z,22
2022-09-16T16:39:16.138Z,22
2022-09-16T16:41:49.342Z,22.1
2022-09-16T16:44:20.261Z,22.1
2022-09-16T16:46:52.752Z,22.1
2022-09-16T16:49:25.541Z,22.1
2022-09-16T16:51:58.060Z,21.9
2022-09-16T16:54:30.789Z,21.8
2022-09-16T16:57:03.920Z,21.8
2022-09-16T16:59:36.450Z,21.7
2022-09-16T17:02:09.795Z,21.7
2022-09-16T17:04:42.373Z,21.6
2022-09-16T17:07:28.709Z,21.5
2022-09-16T17:09:59.526Z,21.5
2022-09-16T17:12:32.755Z,21.5
2022-09-16T17:15:07.260Z,21.6
2022-09-16T17:17:40.334Z,21.5
2022-09-16T17:20:12.925Z,21.5
2022-09-16T17:22:45.611Z,21.4
2022-09-16T17:25:18.302Z,21.4
2022-09-16T17:27:51.317Z,21.3
2022-09-16T17:30:24.947Z,21.3
2022-09-16T17:32:56.584Z,21.2
2022-09-16T17:35:29.049Z,21.2
2022-09-16T17:38:07.564Z,21.1
2022-09-16T17:40:39.024Z,21
2022-09-16T17:43:13.353Z,21.1
2022-09-16T17:45:46.349Z,21.1
2022-09-16T17:48:32.253Z,21.2
2022-09-16T17:51:04.849Z,21.2
2022-09-16T17:53:38.965Z,21.3
2022-09-16T17:56:11.120Z,21.3
2022-09-16T17:58:43.796Z,21.3
2022-09-16T18:01:19.125Z,21.2
2022-09-16T18:03:53.568Z,21.2
2022-09-16T18:06:26.551Z,21.2
2022-09-16T18:08:59.016Z,21.2
2022-09-16T18:11:31.343Z,21.3
2022-09-16T18:14:05.574Z,21.4
2022-09-16T18:16:36.642Z,21.5
2022-09-16T18:19:10.237Z,21.4
2022-09-16T18:21:43.346Z,21.4
2022-09-16T18:24:15.811Z,21.3
2022-09-16T18:26:49.104Z,21.3
2022-09-16T18:29:23.122Z,21.2
2022-09-16T18:31:55.400Z,21.2
2022-09-16T18:34:34.268Z,21.2
2022-09-16T18:37:05.387Z,21.3
2022-09-16T18:39:39.311Z,21.2
2022-09-16T18:42:12.273Z,21.1
2022-09-16T18:44:45.225Z,21.2
2022-09-16T18:47:17.452Z,21.2
2022-09-16T18:49:51.624Z,21.1
2022-09-16T18:52:24.040Z,21.1
2022-09-16T18:55:05.752Z,21
2022-09-16T18:57:38.206Z,21
2022-09-16T19:00:10.762Z,20.9
2022-09-16T19:02:43.701Z,20.8
2022-09-16T19:05:17.063Z,20.9
2022-09-16T19:07:49.656Z,20.9
2022-09-16T19:10:22.448Z,20.9
2022-09-16T19:12:59.320Z,20.9
2022-09-16T19:15:34.742Z,20.7
2022-09-16T19:18:06.498Z,20.8
2022-09-16T19:20:39.266Z,20.7
2022-09-16T19:23:12.157Z,20.7
2022-09-16T19:25:44.728Z,20.7
2022-09-16T19:28:18.243Z,20.7
2022-09-16T19:30:53.175Z,20.6
2022-09-16T19:33:25.812Z,20.5
2022-09-16T19:36:00.812Z,20.5
2022-09-16T19:38:33.989Z,20.2
2022-09-16T19:41:06.182Z,20.2
2022-09-16T19:43:38.613Z,19.9
2022-09-16T19:46:12.032Z,20
2022-09-16T19:48:44.670Z,19.9
2022-09-16T19:51:18.564Z,19.8
2022-09-16T19:53:52.955Z,19.8
2022-09-16T19:56:26.331Z,19.8
2022-09-16T19:59:00.170Z,19.6
2022-09-16T20:01:33.595Z,19.6
2022-09-16T20:04:05.885Z,19.6
2022-09-16T20:06:38.532Z,19.5
2022-09-16T20:09:11.001Z,19.4
2022-09-16T20:11:44.821Z,19.4
2022-09-16T20:14:17.337Z,19.3
2022-09-16T20:16:52.839Z,19.3
2022-09-16T20:19:28.167Z,19.4
2022-09-16T20:22:01.332Z,19.4
2022-09-16T20:24:39.018Z,19.3
2022-09-16T20:27:11.044Z,19.2
2022-09-16T20:29:44.242Z,19.2
2022-09-16T20:32:16.732Z,19.2
2022-09-16T20:34:49.180Z,19.2
2022-09-16T20:37:21.389Z,19.1
2022-09-16T20:39:53.958Z,19.1
2022-09-16T20:42:26.484Z,19
2022-09-16T20:45:02.857Z,19.1
2022-09-16T20:47:38.354Z,19.1
2022-09-16T20:50:11.197Z,19.1
2022-09-16T20:52:42.749Z,19.2
2022-09-16T20:55:16.088Z,19
2022-09-16T20:57:55.168Z,19
2022-09-16T21:00:26.393Z,19
2022-09-16T21:02:59.951Z,19
2022-09-16T21:05:34.056Z,19
2022-09-16T21:08:06.194Z,19
2022-09-16T21:10:38.896Z,19
2022-09-16T21:13:14.215Z,19
2022-09-16T21:15:48.020Z,19.1
2022-09-16T21:18:22.357Z,19.3
2022-09-16T21:20:57.871Z,19.3
2022-09-16T21:23:31.017Z,19.2
2022-09-16T21:26:07.180Z,19.2
2022-09-16T21:28:39.310Z,19.1
2022-09-16T21:31:12.976Z,19.1
2022-09-16T21:33:48.445Z,19.1
2022-09-16T21:36:20.479Z,19.2
2022-09-16T21:38:53.381Z,19
2022-09-16T21:41:25.317Z,19
2022-09-16T21:43:57.394Z,18.9
2022-09-16T21:46:31.046Z,18.9
2022-09-16T21:49:08.654Z,18.8
2022-09-16T21:51:41.861Z,18.7
2022-09-16T21:54:28.961Z,18.7
2022-09-16T21:57:07.921Z,18.8
2022-09-16T21:59:46.146Z,18.9
2022-09-16T22:02:18.684Z,18.8
2022-09-16T22:04:52.018Z,18.9
2022-09-16T22:07:24.252Z,18.9
2022-09-16T22:09:56.650Z,18.9
2022-09-16T22:12:30.062Z,18.8
2022-09-16T22:17:52.490Z,18.8
2022-09-16T22:20:26.514Z,18.8
2022-09-16T22:23:02.121Z,18.8
2022-09-16T22:25:34.668Z,18.8
2022-09-16T22:28:09.643Z,18.8
2022-09-16T22:30:47.558Z,18.9
2022-09-16T22:33:19.630Z,19
2022-09-16T22:36:00.740Z,18.9
2022-09-16T22:38:32.869Z,18.7
2022-09-16T22:41:04.839Z,18.9
2022-09-16T22:43:37.278Z,18.8
2022-09-16T22:46:10.466Z,18.6
2022-09-16T22:48:42.520Z,18.6
2022-09-16T22:51:15.093Z,18.7
2022-09-16T22:53:51.226Z,18.7
2022-09-16T22:56:23.962Z,18.6
2022-09-16T22:58:56.866Z,18.7
2022-09-16T23:01:29.137Z,18.7
2022-09-16T23:04:03.522Z,18.7
2022-09-16T23:06:36.080Z,18.7
2022-09-16T23:09:06.972Z,18.6
2022-09-16T23:11:39.227Z,18.7
2022-09-16T23:14:12.860Z,18.8
2022-09-16T23:16:43.193Z,18.7
2022-09-16T23:19:15.095Z,18.8
2022-09-16T23:21:48.002Z,18.8
2022-09-16T23:24:20.176Z,18.8
2022-09-16T23:26:52.177Z,18.7
2022-09-16T23:29:24.583Z,18.7
2022-09-16T23:31:56.379Z,18.8
2022-09-16T23:34:32.418Z,18.7
2022-09-16T23:37:06.491Z,18.7
2022-09-16T23:39:39.822Z,18.6
2022-09-16T23:42:17.657Z,18.7
2022-09-16T23:44:54.060Z,18.7
2022-09-16T23:47:30.150Z,18.6
2022-09-16T23:50:04.342Z,18.7
2022-09-16T23:52:38.172Z,18.7
2022-09-16T23:55:12.999Z,18.7
2022-09-16T23:57:46.058Z,18.6
